createdAt,value
2022-08-27T00:02:02.430Z,95857.59
2022-08-27T00:04:30.484Z,95858.09
2022-08-27T00:06:59.836Z,95850.63
2022-08-27T00:09:28.017Z,95851.00
2022-08-27T00:11:57.634Z,95854.38
2022-08-27T00:14:27.145Z,95850.34
2022-08-27T00:16:55.873Z,95848.09
2022-08-27T00:19:24.159Z,95851.00
2022-08-27T00:21:52.276Z,95852.13
2022-08-27T00:24:20.352Z,95842.72
2022-08-27T00:26:48.329Z,95846.09
2022-08-27T00:29:17.741Z,95841.94
2022-08-27T00:31:45.823Z,95847.88
2022-08-27T00:34:20.155Z,95845.31
2022-08-27T00:36:48.157Z,95838.66
2022-08-27T00:39:16.249Z,95836.13
2022-08-27T00:41:44.312Z,95842.25
2022-08-27T00:44:12.774Z,95844.34
2022-08-27T00:46:45.344Z,95852.25
2022-08-27T00:49:19.265Z,95846.63
2022-08-27T00:51:54.978Z,95840.59
2022-08-27T00:54:23.403Z,95844.50
2022-08-27T00:56:52.024Z,95839.31
2022-08-27T00:59:23.228Z,95823.97
2022-08-27T01:02:11.011Z,95801.81
2022-08-27T01:04:40.152Z,95837.41
2022-08-27T01:07:09.567Z,95829.13
2022-08-27T01:09:38.715Z,95835.78
2022-08-27T01:12:06.833Z,95838.81
2022-08-27T01:14:35.413Z,95842.09
2022-08-27T01:17:05.702Z,95846.28
2022-08-27T01:19:36.672Z,95845.81
2022-08-27T01:22:07.280Z,95851.00
2022-08-27T01:24:40.024Z,95853.56
2022-08-27T01:27:13.777Z,95845.47
2022-08-27T01:29:42.525Z,95858.72
2022-08-27T01:32:13.965Z,95859.53
2022-08-27T01:34:42.228Z,95863.16
2022-08-27T01:37:10.554Z,95746.69
2022-08-27T01:39:40.727Z,95872.19
2022-08-27T01:42:11.161Z,95871.03
2022-08-27T01:44:48.636Z,95869.28
2022-08-27T01:47:17.708Z,95872.69
2022-08-27T01:49:45.825Z,95874.94
2022-08-27T01:52:15.359Z,95877.22
2022-08-27T01:54:44.928Z,95849.03
2022-08-27T01:57:13.000Z,95882.88
2022-08-27T01:59:41.280Z,95873.66
2022-08-27T02:02:10.501Z,95870.88
2022-08-27T02:04:38.881Z,95876.72
2022-08-27T02:07:07.610Z,95872.81
2022-08-27T02:09:35.927Z,95875.59
2022-08-27T02:12:06.017Z,95879.78
2022-08-27T02:14:34.004Z,95881.41
2022-08-27T02:17:02.201Z,95879.28
2022-08-27T02:19:30.160Z,95877.84
2022-08-27T02:22:00.347Z,95897.28
2022-08-27T02:24:29.046Z,95894.66
2022-08-27T02:26:57.829Z,95891.28
2022-08-27T02:29:27.212Z,95878.81
2022-08-27T02:31:55.493Z,95886.41
2022-08-27T02:34:23.612Z,95878.47
2022-08-27T02:36:53.847Z,95865.22
2022-08-27T02:39:22.406Z,95862.31
2022-08-27T02:41:50.480Z,95874.78
2022-08-27T02:44:18.477Z,95865.88
2022-08-27T02:46:47.994Z,95854.22
2022-08-27T02:49:19.937Z,95861.31
2022-08-27T02:51:47.925Z,95855.50
2022-08-27T02:54:17.803Z,95875.91
2022-08-27T02:56:45.757Z,95881.88
2022-08-27T02:59:15.043Z,95865.53
2022-08-27T03:01:43.023Z,95854.56
2022-08-27T03:04:12.867Z,95862.31
2022-08-27T03:06:41.390Z,95863.91
2022-08-27T03:09:10.299Z,95861.81
2022-08-27T03:11:38.284Z,95862.78
2022-08-27T03:14:06.396Z,95861.00
2022-08-27T03:16:35.658Z,95843.84
2022-08-27T03:19:03.165Z,95859.22
2022-08-27T03:21:32.508Z,95858.91
2022-08-27T03:24:11.322Z,95858.13
2022-08-27T03:26:40.126Z,95856.97
2022-08-27T03:29:09.371Z,95858.28
2022-08-27T03:31:37.867Z,95862.13
2022-08-27T03:34:09.472Z,95867.63
2022-08-27T03:36:38.831Z,95874.56
2022-08-27T03:39:06.815Z,95872.78
2022-08-27T03:41:47.246Z,95866.63
2022-08-27T03:44:22.982Z,95871.78
2022-08-27T03:46:51.634Z,95861.13
2022-08-27T03:49:21.261Z,95867.41
2022-08-27T03:51:51.387Z,95864.97
2022-08-27T03:54:20.003Z,95866.44
2022-08-27T03:56:47.989Z,95865.78
2022-08-27T03:59:16.563Z,95858.50
2022-08-27T04:01:44.804Z,95848.13
2022-08-27T04:04:14.069Z,95821.09
2022-08-27T04:06:42.472Z,95860.28
2022-08-27T04:09:12.420Z,95858.34
2022-08-27T04:11:40.585Z,95860.28
2022-08-27T04:14:20.814Z,95859.84
2022-08-27T04:16:56.426Z,95876.34
2022-08-27T04:19:27.745Z,95879.72
2022-08-27T04:22:00.993Z,95888.75
2022-08-27T04:24:31.399Z,95888.91
2022-08-27T04:26:59.776Z,95889.84
2022-08-27T04:29:27.824Z,95900.03
2022-08-27T04:31:56.153Z,95899.22
2022-08-27T04:34:24.292Z,95895.34
2022-08-27T04:36:53.203Z,95900.13
2022-08-27T04:39:21.212Z,95897.97
2022-08-27T04:41:51.647Z,95909.63
2022-08-27T04:44:19.799Z,95906.38
2022-08-27T04:46:49.344Z,95894.09
2022-08-27T04:49:18.192Z,95903.25
2022-08-27T04:51:47.696Z,95909.28
2022-08-27T04:54:16.445Z,95903.09
2022-08-27T04:56:45.552Z,95906.97
2022-08-27T04:59:15.864Z,95904.38
2022-08-27T05:01:43.978Z,95902.19
2022-08-27T05:04:14.420Z,95894.09
2022-08-27T05:06:44.413Z,95908.16
2022-08-27T05:09:12.932Z,95909.34
2022-08-27T05:11:41.910Z,95901.44
2022-08-27T05:14:13.432Z,95917.94
2022-08-27T05:16:43.475Z,95915.66
2022-08-27T05:19:14.702Z,95920.69
2022-08-27T05:21:47.001Z,95925.88
2022-08-27T05:24:14.981Z,95920.69
2022-08-27T05:26:43.011Z,95925.22
2022-08-27T05:29:11.123Z,95921.19
2022-08-27T05:31:40.604Z,95924.28
2022-08-27T05:34:13.957Z,95920.88
2022-08-27T05:36:49.072Z,95924.00
2022-08-27T05:39:18.233Z,95923.66
2022-08-27T05:41:46.221Z,95919.59
2022-08-27T05:47:03.788Z,95937.06
2022-08-27T05:49:33.143Z,95932.03
2022-08-27T05:52:01.109Z,95936.25
2022-08-27T05:54:29.057Z,95933.19
2022-08-27T05:56:56.948Z,95935.13
2022-08-27T05:59:42.368Z,95932.50
2022-08-27T06:02:11.071Z,95931.97
2022-08-27T06:04:40.492Z,95931.78
2022-08-27T06:07:10.992Z,95931.69
2022-08-27T06:09:39.477Z,95931.88
2022-08-27T06:12:08.511Z,95927.44
2022-08-27T06:14:36.763Z,95937.38
2022-08-27T06:17:05.088Z,95934.38
2022-08-27T06:19:34.780Z,95930.13
2022-08-27T06:22:10.368Z,95935.22
2022-08-27T06:24:40.121Z,95936.56
2022-08-27T06:27:10.984Z,95926.59
2022-08-27T06:29:39.537Z,95938.75
2022-08-27T06:32:07.900Z,95935.22
2022-08-27T06:34:36.202Z,95947.44
2022-08-27T06:37:05.665Z,95959.63
2022-08-27T06:39:33.689Z,95960.97
2022-08-27T06:42:01.628Z,95956.88
2022-08-27T06:44:29.911Z,95961.72
2022-08-27T06:46:57.854Z,95973.59
2022-08-27T06:49:25.767Z,95983.63
2022-08-27T06:51:53.848Z,95993.91
2022-08-27T06:54:23.193Z,95996.44
2022-08-27T06:56:51.196Z,95999.59
2022-08-27T06:59:20.788Z,95995.00
2022-08-27T07:01:51.358Z,95999.50
2022-08-27T07:04:21.400Z,95997.09
2022-08-27T07:06:50.055Z,95999.16
2022-08-27T07:09:20.599Z,96000.69
2022-08-27T07:11:49.954Z,96005.69
2022-08-27T07:14:18.069Z,96006.09
2022-08-27T07:16:46.072Z,96005.31
2022-08-27T07:19:16.199Z,96008.84
2022-08-27T07:21:45.704Z,95998.41
2022-08-27T07:24:13.700Z,96008.53
2022-08-27T07:26:43.986Z,96012.47
2022-08-27T07:29:15.354Z,96007.59
2022-08-27T07:31:43.870Z,95979.25
2022-08-27T07:34:11.847Z,96006.22
2022-08-27T07:36:41.092Z,96013.44
2022-08-27T07:39:09.486Z,95982.97
2022-08-27T07:41:58.403Z,96007.59
2022-08-27T07:44:28.004Z,96010.72
2022-08-27T07:46:58.678Z,96013.31
2022-08-27T07:49:29.021Z,96023.00
2022-08-27T07:51:57.098Z,96017.66
2022-08-27T07:54:25.349Z,96023.53
2022-08-27T07:56:55.252Z,96033.94
2022-08-27T07:59:24.740Z,95995.94
2022-08-27T08:01:55.092Z,96033.50
2022-08-27T08:04:23.739Z,96029.69
2022-08-27T08:06:52.377Z,96031.63
2022-08-27T08:09:22.133Z,96034.63
2022-08-27T08:11:50.183Z,96034.59
2022-08-27T08:14:18.237Z,96034.59
2022-08-27T08:16:46.524Z,96008.25
2022-08-27T08:19:16.073Z,96020.66
2022-08-27T08:21:44.088Z,96032.56
2022-08-27T08:24:12.313Z,96039.59
2022-08-27T08:26:42.043Z,96021.91
2022-08-27T08:29:13.308Z,96038.59
2022-08-27T08:31:49.999Z,96047.00
2022-08-27T08:34:20.709Z,95974.56
2022-08-27T08:36:54.045Z,96044.16
2022-08-27T08:39:23.577Z,96042.97
2022-08-27T08:41:54.065Z,96040.59
2022-08-27T08:44:31.890Z,96047.81
2022-08-27T08:47:04.481Z,96056.66
2022-08-27T08:49:40.033Z,96055.47
2022-08-27T08:52:26.126Z,96047.38
2022-08-27T08:55:05.309Z,96044.53
2022-08-27T08:57:37.730Z,96002.31
2022-08-27T09:00:10.740Z,96027.66
2022-08-27T09:02:39.051Z,96035.34
2022-08-27T09:05:09.756Z,96027.50
2022-08-27T09:07:44.911Z,96048.53
2022-08-27T09:10:21.070Z,96052.75
2022-08-27T09:12:49.113Z,96034.63
2022-08-27T09:15:20.097Z,96043.00
2022-08-27T09:17:48.920Z,96040.16
2022-08-27T09:20:20.157Z,96044.06
2022-08-27T09:22:51.837Z,96039.03
2022-08-27T09:25:21.936Z,96039.88
2022-08-27T09:27:56.573Z,96038.44
2022-08-27T09:30:30.575Z,96017.75
2022-08-27T09:33:01.320Z,96029.72
2022-08-27T09:35:37.794Z,96027.94
2022-08-27T09:38:05.851Z,96025.03
2022-08-27T09:40:40.039Z,96026.56
2022-08-27T09:43:09.850Z,96027.56
2022-08-27T09:45:37.850Z,96014.13
2022-08-27T09:48:08.290Z,96025.47
2022-08-27T09:50:43.585Z,96027.44
2022-08-27T09:53:19.877Z,96027.44
2022-08-27T09:55:50.513Z,95988.50
2022-08-27T09:58:21.531Z,96019.25
2022-08-27T10:00:50.346Z,96023.22
2022-08-27T10:03:22.510Z,96020.59
2022-08-27T10:05:54.467Z,96031.44
2022-08-27T10:08:25.752Z,96014.16
2022-08-27T10:10:56.578Z,96025.25
2022-08-27T10:13:28.899Z,96026.63
2022-08-27T10:16:07.553Z,96025.34
2022-08-27T10:18:41.521Z,96021.69
2022-08-27T10:21:17.100Z,96010.50
2022-08-27T10:23:52.686Z,96016.38
2022-08-27T10:26:27.981Z,96008.38
2022-08-27T10:29:09.291Z,96019.22
2022-08-27T10:31:41.191Z,96008.66
2022-08-27T10:34:17.744Z,96008.44
2022-08-27T10:36:57.832Z,96004.00
2022-08-27T10:39:41.239Z,95999.75
2022-08-27T10:42:14.922Z,96008.97
2022-08-27T10:44:50.965Z,95954.69
2022-08-27T10:47:31.393Z,95996.97
2022-08-27T10:50:05.302Z,95996.31
2022-08-27T10:52:38.550Z,95999.56
2022-08-27T10:55:14.817Z,95988.75
2022-08-27T10:58:05.579Z,95986.84
2022-08-27T11:00:41.685Z,95965.84
2022-08-27T11:03:14.030Z,95992.66
2022-08-27T11:05:46.543Z,95985.94
2022-08-27T11:08:20.774Z,95983.97
2022-08-27T11:10:51.450Z,95983.75
2022-08-27T11:13:23.763Z,95981.44
2022-08-27T11:15:53.294Z,95959.84
2022-08-27T11:18:26.145Z,95962.19
2022-08-27T11:20:59.817Z,95974.56
2022-08-27T11:23:33.814Z,95960.00
2022-08-27T11:26:05.188Z,95967.84
2022-08-27T11:28:37.623Z,95960.50
2022-08-27T11:31:11.427Z,95954.63
2022-08-27T11:33:46.249Z,95953.25
2022-08-27T11:36:45.270Z,95944.34
2022-08-27T11:39:30.383Z,95954.88
2022-08-27T11:42:11.095Z,95960.63
2022-08-27T11:44:43.066Z,95957.22
2022-08-27T11:47:13.947Z,95966.69
2022-08-27T11:49:47.727Z,95967.72
2022-08-27T11:52:23.751Z,95968.59
2022-08-27T11:54:56.728Z,95970.66
2022-08-27T11:57:30.502Z,95971.66
2022-08-27T11:59:59.208Z,95977.41
2022-08-27T12:02:29.505Z,95974.75
2022-08-27T12:05:09.181Z,95976.44
2022-08-27T12:07:39.792Z,95972.53
2022-08-27T12:10:33.319Z,95970.66
2022-08-27T12:13:14.343Z,95973.41
2022-08-27T12:15:56.002Z,95975.91
2022-08-27T12:18:41.525Z,95977.66
2022-08-27T12:21:17.080Z,95977.25
2022-08-27T12:23:51.039Z,95955.13
2022-08-27T12:26:31.168Z,95972.38
2022-08-27T12:29:34.391Z,95975.69
2022-08-27T12:32:17.936Z,95935.59
2022-08-27T12:34:49.909Z,95973.50
2022-08-27T12:37:23.496Z,95970.34
2022-08-27T12:39:52.652Z,95973.13
2022-08-27T12:42:22.842Z,95958.25
2022-08-27T12:44:55.581Z,95941.44
2022-08-27T12:47:23.632Z,95946.03
2022-08-27T12:49:56.367Z,95944.22
2022-08-27T12:52:52.539Z,95938.34
2022-08-27T12:55:27.942Z,95937.00
2022-08-27T12:58:05.962Z,95933.09
2022-08-27T13:00:38.909Z,95857.16
2022-08-27T13:03:22.260Z,95933.13
2022-08-27T13:05:51.405Z,95857.63
2022-08-27T13:08:21.611Z,95931.41
2022-08-27T13:10:50.638Z,95937.22
2022-08-27T13:13:21.639Z,95936.53
2022-08-27T13:15:52.664Z,95933.81
2022-08-27T13:18:21.635Z,95934.47
2022-08-27T13:20:53.338Z,95934.50
2022-08-27T13:23:24.090Z,95933.13
2022-08-27T13:25:59.393Z,95935.19
2022-08-27T13:28:29.929Z,95926.50
2022-08-27T13:30:58.189Z,95886.78
2022-08-27T13:33:29.007Z,95929.47
2022-08-27T13:35:58.238Z,95929.81
2022-08-27T13:38:28.149Z,95927.28
2022-08-27T13:40:58.967Z,95930.63
2022-08-27T13:43:36.614Z,95930.91
2022-08-27T13:46:08.471Z,95934.03
2022-08-27T13:48:37.159Z,95923.03
2022-08-27T13:51:06.990Z,95932.22
2022-08-27T13:53:52.855Z,95933.69
2022-08-27T13:56:26.678Z,95929.53
2022-08-27T13:58:56.568Z,95921.88
2022-08-27T14:01:30.491Z,95930.28
2022-08-27T14:04:03.723Z,95936.53
2022-08-27T14:06:37.120Z,95917.88
2022-08-27T14:09:13.319Z,95936.50
2022-08-27T14:11:41.263Z,95933.72
2022-08-27T14:14:10.648Z,95854.41
2022-08-27T14:16:39.733Z,95928.44
2022-08-27T14:19:10.381Z,95928.22
2022-08-27T14:21:40.566Z,95919.91
2022-08-27T14:24:08.899Z,95891.75
2022-08-27T14:26:37.008Z,95923.94
2022-08-27T14:29:11.908Z,95927.38
2022-08-27T14:31:41.964Z,95927.38
2022-08-27T14:34:09.974Z,95925.34
2022-08-27T14:36:39.013Z,95931.00
2022-08-27T14:39:07.159Z,95930.00
2022-08-27T14:41:35.404Z,95940.25
2022-08-27T14:44:03.414Z,95932.19
2022-08-27T14:46:35.958Z,95941.03
2022-08-27T14:49:13.091Z,95933.63
2022-08-27T14:51:42.739Z,95930.97
2022-08-27T14:54:10.715Z,95927.97
2022-08-27T14:56:38.854Z,95911.47
2022-08-27T14:59:06.798Z,95924.34
2022-08-27T15:01:38.864Z,95917.56
2022-08-27T15:04:07.472Z,95925.81
2022-08-27T15:06:36.759Z,95921.59
2022-08-27T15:09:05.913Z,95919.97
2022-08-27T15:11:36.340Z,95927.84
2022-08-27T15:14:06.586Z,95926.25
2022-08-27T15:16:36.762Z,95879.94
2022-08-27T15:19:07.109Z,95903.66
2022-08-27T15:21:38.547Z,95913.75
2022-08-27T15:24:08.362Z,95907.28
2022-08-27T15:26:36.994Z,95925.81
2022-08-27T15:29:06.741Z,95925.38
2022-08-27T15:31:35.136Z,95918.50
2022-08-27T15:34:03.161Z,95918.13
2022-08-27T15:36:31.110Z,95909.03
2022-08-27T15:39:00.823Z,95894.97
2022-08-27T15:41:29.462Z,95896.78
2022-08-27T15:43:58.090Z,95907.28
2022-08-27T15:46:26.987Z,95910.50
2022-08-27T15:48:55.107Z,95909.69
2022-08-27T15:51:27.449Z,95905.25
2022-08-27T15:53:55.437Z,95929.81
2022-08-27T15:56:25.334Z,95926.84
2022-08-27T15:58:53.311Z,95927.84
2022-08-27T16:01:25.498Z,95915.69
2022-08-27T16:03:53.629Z,95923.59
2022-08-27T16:06:21.705Z,95925.25
2022-08-27T16:08:49.645Z,95927.19
2022-08-27T16:11:17.685Z,95920.69
2022-08-27T16:13:47.029Z,95926.03
2022-08-27T16:16:15.104Z,95924.78
2022-08-27T16:18:43.698Z,95898.13
2022-08-27T16:21:11.724Z,95909.59
2022-08-27T16:23:39.658Z,95916.06
2022-08-27T16:26:07.654Z,95914.84
2022-08-27T16:28:35.621Z,95907.69
2022-08-27T16:31:05.604Z,95890.38
2022-08-27T16:33:40.155Z,95905.22
2022-08-27T16:36:08.794Z,95898.31
2022-08-27T16:38:37.173Z,95912.09
2022-08-27T16:41:06.012Z,95907.44
2022-08-27T16:43:34.229Z,95902.94
2022-08-27T16:46:04.266Z,95906.44
2022-08-27T16:49:04.346Z,95910.38
2022-08-27T16:51:34.495Z,95916.00
2022-08-27T16:54:03.965Z,95885.41
2022-08-27T16:56:36.888Z,95920.78
2022-08-27T16:59:05.866Z,95929.25
2022-08-27T17:01:35.458Z,95930.25
2022-08-27T17:04:18.181Z,95928.44
2022-08-27T17:06:51.598Z,95930.72
2022-08-27T17:09:20.216Z,95941.75
2022-08-27T17:11:51.992Z,95930.63
2022-08-27T17:14:20.014Z,95951.50
2022-08-27T17:16:50.098Z,95955.84
2022-08-27T17:19:18.875Z,95958.97
2022-08-27T17:21:47.112Z,95975.69
2022-08-27T17:24:15.155Z,95981.59
2022-08-27T17:26:43.151Z,95975.50
2022-08-27T17:29:11.121Z,95980.63
2022-08-27T17:31:40.549Z,95986.16
2022-08-27T17:34:15.421Z,95978.28
2022-08-27T17:36:44.347Z,95993.19
2022-08-27T17:39:12.677Z,95990.72
2022-08-27T17:41:42.782Z,95985.94
2022-08-27T17:44:22.356Z,95985.78
2022-08-27T17:46:50.915Z,95982.34
2022-08-27T17:49:20.349Z,95984.69
2022-08-27T17:51:49.516Z,95982.53
2022-08-27T17:54:27.241Z,95978.56
2022-08-27T17:56:55.264Z,95982.88
2022-08-27T17:59:23.584Z,95994.00
2022-08-27T18:01:51.770Z,95972.41
2022-08-27T18:04:21.338Z,96000.59
2022-08-27T18:06:49.543Z,96007.00
2022-08-27T18:09:17.860Z,95995.75
2022-08-27T18:11:46.436Z,96009.56
2022-08-27T18:14:18.104Z,96008.63
2022-08-27T18:16:46.691Z,96015.69
2022-08-27T18:19:14.744Z,96011.00
2022-08-27T18:21:46.595Z,96001.66
2022-08-27T18:24:15.781Z,95996.22
2022-08-27T18:26:44.109Z,96008.91
2022-08-27T18:29:12.325Z,95974.94
2022-08-27T18:31:40.466Z,96014.66
2022-08-27T18:34:08.438Z,95987.00
2022-08-27T18:36:36.402Z,96014.53
2022-08-27T18:39:05.779Z,96017.63
2022-08-27T18:41:33.890Z,96016.81
2022-08-27T18:44:02.373Z,96005.25
2022-08-27T18:46:30.428Z,96018.88
2022-08-27T18:48:58.475Z,96016.81
2022-08-27T18:51:26.478Z,96012.63
2022-08-27T18:53:59.596Z,96001.31
2022-08-27T18:56:28.938Z,96016.84
2022-08-27T18:58:56.952Z,96023.34
2022-08-27T19:01:27.745Z,96018.13
2022-08-27T19:03:58.195Z,96021.38
2022-08-27T19:06:26.191Z,96020.13
2022-08-27T19:08:54.153Z,96016.53
2022-08-27T19:11:22.135Z,96009.13
2022-08-27T19:13:51.808Z,96014.66
2022-08-27T19:16:21.990Z,96017.56
2022-08-27T19:18:50.037Z,96015.78
2022-08-27T19:21:18.064Z,96014.03
2022-08-27T19:23:46.057Z,96015.69
2022-08-27T19:26:18.074Z,96010.50
2022-08-27T19:28:46.448Z,96007.31
2022-08-27T19:31:16.304Z,96008.28
2022-08-27T19:33:44.640Z,96006.34
2022-08-27T19:36:15.809Z,96004.09
2022-08-27T19:38:44.704Z,95973.59
2022-08-27T19:41:13.737Z,96014.09
2022-08-27T19:43:46.002Z,96005.47
2022-08-27T19:46:18.169Z,96017.00
2022-08-27T19:48:46.221Z,96017.38
2022-08-27T19:51:14.349Z,96017.91
2022-08-27T19:53:42.529Z,96017.22
2022-08-27T19:56:13.160Z,96024.72
2022-08-27T19:58:41.730Z,95957.81
2022-08-27T20:01:10.008Z,96037.38
2022-08-27T20:03:39.596Z,96027.00
2022-08-27T20:06:07.583Z,96038.44
2022-08-27T20:08:35.561Z,96041.88
2022-08-27T20:11:03.532Z,96051.66
2022-08-27T20:13:33.343Z,96050.72
2022-08-27T20:16:02.918Z,96054.22
2022-08-27T20:18:31.320Z,96052.81
2022-08-27T20:21:05.877Z,96056.41
2022-08-27T20:23:34.383Z,96054.63
2022-08-27T20:26:02.506Z,96058.56
2022-08-27T20:28:39.809Z,96044.44
2022-08-27T20:31:08.496Z,96036.63
2022-08-27T20:33:36.489Z,96039.09
2022-08-27T20:36:07.975Z,96035.81
2022-08-27T20:38:36.049Z,96046.22
2022-08-27T20:41:04.653Z,96034.88
2022-08-27T20:43:33.168Z,96032.44
2022-08-27T20:46:01.665Z,96037.16
2022-08-27T20:48:29.910Z,96034.22
2022-08-27T20:50:57.895Z,96035.88
2022-08-27T20:53:27.240Z,96045.25
2022-08-27T20:55:56.611Z,96047.19
2022-08-27T20:58:42.200Z,96045.25
2022-08-27T21:01:10.811Z,96046.25
2022-08-27T21:03:38.908Z,96045.91
2022-08-27T21:06:07.657Z,96047.84
2022-08-27T21:08:38.776Z,96053.50
2022-08-27T21:11:10.751Z,96052.38
2022-08-27T21:13:51.114Z,96049.16
2022-08-27T21:16:24.038Z,96047.84
2022-08-27T21:18:53.655Z,96042.66
2022-08-27T21:21:21.727Z,96049.16
2022-08-27T21:23:51.150Z,96042.00
2022-08-27T21:26:20.152Z,96045.72
2022-08-27T21:28:48.087Z,96044.94
2022-08-27T21:31:23.650Z,96043.16
2022-08-27T21:33:51.636Z,96041.34
2022-08-27T21:36:19.699Z,96021.94
2022-08-27T21:38:47.644Z,96029.72
2022-08-27T21:41:17.326Z,96024.66
2022-08-27T21:43:45.312Z,96024.34
2022-08-27T21:46:13.371Z,96024.50
2022-08-27T21:48:41.465Z,96013.44
2022-08-27T21:51:10.921Z,96010.59
2022-08-27T21:53:39.206Z,96016.34
2022-08-27T21:56:07.557Z,96021.34
2022-08-27T21:58:36.989Z,96020.69
2022-08-27T22:01:05.891Z,96013.69
2022-08-27T22:03:35.341Z,96014.38
2022-08-27T22:06:06.695Z,95975.66
2022-08-27T22:08:35.154Z,95956.69
2022-08-27T22:11:03.354Z,96007.25
2022-08-27T22:13:31.479Z,96010.28
2022-08-27T22:16:00.907Z,96016.91
2022-08-27T22:18:28.937Z,96011.72
2022-08-27T22:20:58.801Z,95991.28
2022-08-27T22:23:27.459Z,96018.34
2022-08-27T22:25:55.449Z,96011.38
2022-08-27T22:28:23.514Z,96012.28
2022-08-27T22:30:51.611Z,96016.16
2022-08-27T22:33:21.090Z,96006.13
2022-08-27T22:35:49.439Z,96007.72
2022-08-27T22:38:17.449Z,95997.06
2022-08-27T22:40:45.650Z,95999.00
2022-08-27T22:43:14.816Z,95983.25
2022-08-27T22:45:42.838Z,95993.94
2022-08-27T22:48:11.047Z,95997.63
2022-08-27T22:50:40.492Z,95988.69
2022-08-27T22:53:08.607Z,95985.25
2022-08-27T22:55:36.664Z,95976.19
2022-08-27T22:58:04.922Z,95970.25
2022-08-27T23:00:35.335Z,95968.13
2022-08-27T23:03:05.554Z,95963.94
2022-08-27T23:05:40.497Z,95951.03
2022-08-27T23:08:14.007Z,95962.53
2022-08-27T23:10:43.592Z,95965.09
2022-08-27T23:13:12.638Z,95927.47
2022-08-27T23:15:41.575Z,95952.94
2022-08-27T23:18:10.225Z,95957.09
2022-08-27T23:20:38.218Z,95955.47
2022-08-27T23:23:07.990Z,95962.28
2022-08-27T23:25:54.824Z,95970.16
2022-08-27T23:28:23.492Z,95962.34
2022-08-27T23:30:51.596Z,95955.72
2022-08-27T23:33:21.157Z,95969.59
2022-08-27T23:35:51.509Z,95958.41
2022-08-27T23:38:20.785Z,95971.81
2022-08-27T23:40:50.858Z,95977.16
2022-08-27T23:43:19.541Z,95975.88
2022-08-27T23:45:49.024Z,95984.31
2022-08-27T23:48:17.085Z,95968.44
2022-08-27T23:50:45.533Z,95966.81
2022-08-27T23:53:14.708Z,95981.13
2022-08-27T23:55:42.780Z,95954.16
2022-08-27T23:58:12.699Z,95973.28
